Wetterdaten: Freitag, 04.05.2007
Datum Zeit Temp. A. Feuchte A. Luftdruck Regen Wind Richtung Richtung Sonnenschein UV Solar Windben
04.05.2007 00:00 12,8 C 54 % 1011,8 hPa 0,0 mm 0,0 km/h (0 Bft) O-SO 112 0 min 0 UV-I 0 W/m 1,6 km/h (1 Bft)
04.05.2007 00:10 12,6 C 55 % 1011,6 hPa 0,0 mm 0,0 km/h (0 Bft) O-SO 112 0 min 0 UV-I 0 W/m 1,6 km/h (1 Bft)
04.05.2007 00:20 12,4 C 56 % 1011,7 hPa 0,0 mm 0,0 km/h (0 Bft) N 0 0 min 0 UV-I 0 W/m 0,0 km/h (0 Bft)
04.05.2007 00:30 12,1 C 57 % 1011,6 hPa 0,0 mm 0,0 km/h (0 Bft) N 0 0 min 0 UV-I 0 W/m 0,0 km/h (0 Bft)
04.05.2007 00:40 11,8 C 58 % 1011,6 hPa 0,0 mm 0,0 km/h (0 Bft) N 0 0 min 0 UV-I 0 W/m 0,0 km/h (0 Bft)
04.05.2007 00:50 11,6 C 60 % 1011,6 hPa 0,0 mm 0,0 km/h (0 Bft) N 0 0 min 0 UV-I 0 W/m 0,0 km/h (0 Bft)
04.05.2007 01:00 11,1 C 62 % 1011,6 hPa 0,0 mm 0,0 km/h (0 Bft) N 0 0 min 0 UV-I 0 W/m 0,0 km/h (0 Bft)
04.05.2007 01:10 10,7 C 63 % 1011,7 hPa 0,0 mm 0,0 km/h (0 Bft) N 0 0 min 0 UV-I 0 W/m 0,0 km/h (0 Bft)
04.05.2007 01:20 10,6 C 64 % 1011,6 hPa 0,0 mm 0,0 km/h (0 Bft) N 0 0 min 0 UV-I 0 W/m 0,0 km/h (0 Bft)
04.05.2007 01:30 10,2 C 66 % 1011,7 hPa 0,0 mm 0,0 km/h (0 Bft) N 0 0 min 0 UV-I 0 W/m 0,0 km/h (0 Bft)
04.05.2007 01:40 9,9 C 68 % 1011,6 hPa 0,0 mm 0,0 km/h (0 Bft) N 0 0 min 0 UV-I 0 W/m 0,0 km/h (0 Bft)
04.05.2007 01:50 9,8 C 68 % 1011,7 hPa 0,0 mm 0,0 km/h (0 Bft) N 0 0 min 0 UV-I 0 W/m 0,0 km/h (0 Bft)
04.05.2007 02:00 9,9 C 67 % 1011,6 hPa 0,0 mm 0,0 km/h (0 Bft) N 0 0 min 0 UV-I 0 W/m 0,0 km/h (0 Bft)
04.05.2007 02:10 9,7 C 69 % 1011,5 hPa 0,0 mm 0,0 km/h (0 Bft) N 0 0 min 0 UV-I 0 W/m 0,0 km/h (0 Bft)
04.05.2007 02:20 9,3 C 70 % 1011,5 hPa 0,0 mm 0,0 km/h (0 Bft) N 0 0 min 0 UV-I 0 W/m 0,0 km/h (0 Bft)
04.05.2007 02:30 9,2 C 71 % 1011,5 hPa 0,0 mm 0,0 km/h (0 Bft) N 0 0 min 0 UV-I 0 W/m 0,0 km/h (0 Bft)
04.05.2007 02:40 9,0 C 72 % 1011,4 hPa 0,0 mm 0,0 km/h (0 Bft) N 0 0 min 0 UV-I 0 W/m 0,0 km/h (0 Bft)
04.05.2007 02:50 8,8 C 73 % 1011,3 hPa 0,0 mm 0,0 km/h (0 Bft) N 0 0 min 0 UV-I 0 W/m 0,0 km/h (0 Bft)
04.05.2007 03:00 8,7 C 73 % 1011,1 hPa 0,0 mm 0,0 km/h (0 Bft) N 0 0 min 0 UV-I 0 W/m 0,0 km/h (0 Bft)
04.05.2007 03:10 8,7 C 73 % 1011,0 hPa 0,0 mm 0,0 km/h (0 Bft) N 0 0 min 0 UV-I 0 W/m 0,0 km/h (0 Bft)
04.05.2007 03:20 8,5 C 74 % 1011,1 hPa 0,0 mm 0,0 km/h (0 Bft) N 0 0 min 0 UV-I 0 W/m 0,0 km/h (0 Bft)
04.05.2007 03:30 8,4 C 76 % 1011,1 hPa 0,0 mm 0,0 km/h (0 Bft) N 0 0 min 0 UV-I 0 W/m 0,0 km/h (0 Bft)
04.05.2007 03:40 8,3 C 77 % 1011,1 hPa 0,0 mm 0,0 km/h (0 Bft) N 0 0 min 0 UV-I 0 W/m 0,0 km/h (0 Bft)
04.05.2007 03:50 8,2 C 76 % 1011,0 hPa 0,0 mm 0,0 km/h (0 Bft) N 0 0 min 0 UV-I 0 W/m 0,0 km/h (0 Bft)
04.05.2007 04:00 8,1 C 77 % 1011,1 hPa 0,0 mm 0,0 km/h (0 Bft) N 0 0 min 0 UV-I 0 W/m 0,0 km/h (0 Bft)
04.05.2007 04:10 7,8 C 78 % 1011,0 hPa 0,0 mm 0,0 km/h (0 Bft) N 0 0 min 0 UV-I 0 W/m 0,0 km/h (0 Bft)
04.05.2007 04:20 7,8 C 78 % 1011,0 hPa 0,0 mm 0,0 km/h (0 Bft) N 0 0 min 0 UV-I 0 W/m 0,0 km/h (0 Bft)
04.05.2007 04:30 7,7 C 78 % 1010,8 hPa 0,0 mm 0,0 km/h (0 Bft) N 0 0 min 0 UV-I 0 W/m 0,0 km/h (0 Bft)
04.05.2007 04:40 7,6 C 79 % 1010,7 hPa 0,0 mm 0,0 km/h (0 Bft) N 0 0 min 0 UV-I 0 W/m 0,0 km/h (0 Bft)
04.05.2007 04:50 7,7 C 79 % 1010,6 hPa 0,0 mm 0,0 km/h (0 Bft) N 0 0 min 0 UV-I 0 W/m 0,0 km/h (0 Bft)
04.05.2007 05:00 7,6 C 79 % 1010,6 hPa 0,0 mm 0,0 km/h (0 Bft) N 0 0 min 0 UV-I 0 W/m 0,0 km/h (0 Bft)
04.05.2007 05:10 7,5 C 79 % 1010,6 hPa 0,0 mm 0,0 km/h (0 Bft) N 0 0 min 0 UV-I 0 W/m 0,0 km/h (0 Bft)
04.05.2007 05:20 7,5 C 79 % 1010,6 hPa 0,0 mm 0,0 km/h (0 Bft) N 0 0 min 0 UV-I 0 W/m 0,0 km/h (0 Bft)
04.05.2007 05:30 7,5 C 79 % 1010,5 hPa 0,0 mm 0,0 km/h (0 Bft) N 0 0 min 0 UV-I 0 W/m 0,0 km/h (0 Bft)
04.05.2007 05:40 7,4 C 79 % 1010,5 hPa 0,0 mm 0,0 km/h (0 Bft) N 0 0 min 0 UV-I 0 W/m 0,0 km/h (0 Bft)
04.05.2007 05:50 7,4 C 80 % 1010,4 hPa 0,0 mm 0,0 km/h (0 Bft) N 0 0 min 0 UV-I 0 W/m 0,0 km/h (0 Bft)
04.05.2007 06:00 7,3 C 81 % 1010,4 hPa 0,0 mm 0,0 km/h (0 Bft) N 0 0 min 0 UV-I 5 W/m 0,0 km/h (0 Bft)
04.05.2007 06:10 7,2 C 81 % 1010,3 hPa 0,0 mm 0,0 km/h (0 Bft) N 0 0 min 0 UV-I 11 W/m 0,0 km/h (0 Bft)
04.05.2007 06:20 7,2 C 81 % 1010,3 hPa 0,0 mm 0,0 km/h (0 Bft) N 0 0 min 0 UV-I 16 W/m 0,0 km/h (0 Bft)
04.05.2007 06:30 7,3 C 81 % 1010,3 hPa 0,0 mm 0,0 km/h (0 Bft) N 0 0 min 0 UV-I 21 W/m 0,0 km/h (0 Bft)
04.05.2007 06:40 7,3 C 81 % 1010,3 hPa 0,0 mm 0,0 km/h (0 Bft) N 0 0 min 0 UV-I 28 W/m 0,0 km/h (0 Bft)
04.05.2007 06:50 7,6 C 79 % 1010,4 hPa 0,0 mm 0,0 km/h (0 Bft) N 0 0 min 0 UV-I 62 W/m 0,0 km/h (0 Bft)
04.05.2007 07:00 8,0 C 78 % 1010,5 hPa 0,0 mm 0,0 km/h (0 Bft) N 0 0 min 0 UV-I 60 W/m 0,0 km/h (0 Bft)
04.05.2007 07:10 8,6 C 76 % 1010,5 hPa 0,0 mm 0,0 km/h (0 Bft) N 0 0 min 0 UV-I 86 W/m 0,0 km/h (0 Bft)
04.05.2007 07:20 9,1 C 73 % 1010,5 hPa 0,0 mm 0,0 km/h (0 Bft) N 0 0 min 0 UV-I 109 W/m 0,0 km/h (0 Bft)
04.05.2007 07:30 9,7 C 70 % 1010,5 hPa 0,0 mm 0,0 km/h (0 Bft) O-SO 112 10 min 0 UV-I 155 W/m 1,6 km/h (1 Bft)
04.05.2007 07:40 10,4 C 69 % 1010,6 hPa 0,0 mm 0,0 km/h (0 Bft) N 0 10 min 0 UV-I 174 W/m 0,0 km/h (0 Bft)
04.05.2007 07:50 10,9 C 66 % 1010,6 hPa 0,0 mm 0,0 km/h (0 Bft) N 0 10 min 1 UV-I 199 W/m 0,0 km/h (0 Bft)
04.05.2007 08:00 12,1 C 61 % 1010,5 hPa 0,0 mm 0,0 km/h (0 Bft) O-SO 112 10 min 1 UV-I 221 W/m 6,4 km/h (2 Bft)
04.05.2007 08:10 13,3 C 57 % 1010,6 hPa 0,0 mm 1,6 km/h (1 Bft) S-SO 157 10 min 1 UV-I 246 W/m 6,4 km/h (2 Bft)
04.05.2007 08:20 14,1 C 54 % 1010,6 hPa 0,0 mm 1,6 km/h (1 Bft) O 90 10 min 1 UV-I 271 W/m 3,2 km/h (1 Bft)
04.05.2007 08:30 14,7 C 53 % 1010,6 hPa 0,0 mm 0,0 km/h (0 Bft) SO 135 10 min 1 UV-I 299 W/m 4,8 km/h (1 Bft)
04.05.2007 08:40 15,3 C 50 % 1010,6 hPa 0,0 mm 0,0 km/h (0 Bft) SO 135 10 min 1 UV-I 325 W/m 4,8 km/h (1 Bft)
04.05.2007 08:50 15,9 C 49 % 1010,5 hPa 0,0 mm 1,6 km/h (1 Bft) SO 135 10 min 1 UV-I 348 W/m 4,8 km/h (1 Bft)
04.05.2007 09:00 16,4 C 48 % 1010,5 hPa 0,0 mm 1,6 km/h (1 Bft) SO 135 10 min 1 UV-I 376 W/m 6,4 km/h (2 Bft)
04.05.2007 09:10 16,9 C 47 % 1010,5 hPa 0,0 mm 1,6 km/h (1 Bft) SO 135 10 min 1 UV-I 403 W/m 6,4 km/h (2 Bft)
04.05.2007 09:20 17,4 C 46 % 1010,5 hPa 0,0 mm 1,6 km/h (1 Bft) O 90 10 min 2 UV-I 427 W/m 4,8 km/h (1 Bft)
04.05.2007 09:30 17,7 C 45 % 1010,5 hPa 0,0 mm 1,6 km/h (1 Bft) O 90 10 min 2 UV-I 454 W/m 6,4 km/h (2 Bft)
04.05.2007 09:40 18,2 C 41 % 1010,4 hPa 0,0 mm 3,2 km/h (1 Bft) O 90 10 min 2 UV-I 482 W/m 8,0 km/h (2 Bft)
04.05.2007 09:50 18,4 C 41 % 1010,5 hPa 0,0 mm 3,2 km/h (1 Bft) O 90 10 min 2 UV-I 504 W/m 9,7 km/h (2 Bft)
04.05.2007 10:00 18,9 C 41 % 1010,4 hPa 0,0 mm 1,6 km/h (1 Bft) O 90 10 min 2 UV-I 529 W/m 8,0 km/h (2 Bft)
04.05.2007 10:10 19,2 C 40 % 1010,5 hPa 0,0 mm 3,2 km/h (1 Bft) O 90 10 min 2 UV-I 554 W/m 8,0 km/h (2 Bft)
04.05.2007 10:20 19,6 C 39 % 1010,3 hPa 0,0 mm 3,2 km/h (1 Bft) O 90 10 min 3 UV-I 577 W/m 8,0 km/h (2 Bft)
04.05.2007 10:30 19,9 C 38 % 1010,3 hPa 0,0 mm 3,2 km/h (1 Bft) O-NO 67 10 min 3 UV-I 598 W/m 11,3 km/h (2 Bft)
04.05.2007 10:40 20,1 C 37 % 1010,2 hPa 0,0 mm 4,8 km/h (1 Bft) O 90 10 min 3 UV-I 622 W/m 11,3 km/h (2 Bft)
04.05.2007 10:50 20,2 C 37 % 1010,2 hPa 0,0 mm 4,8 km/h (1 Bft) O 90 10 min 3 UV-I 640 W/m 16,1 km/h (3 Bft)
04.05.2007 11:00 20,4 C 37 % 1010,1 hPa 0,0 mm 4,8 km/h (1 Bft) O 90 10 min 3 UV-I 659 W/m 11,3 km/h (2 Bft)
04.05.2007 11:10 20,7 C 36 % 1010,1 hPa 0,0 mm 4,8 km/h (1 Bft) O 90 10 min 4 UV-I 677 W/m 16,1 km/h (3 Bft)
04.05.2007 11:20 20,9 C 34 % 1010,0 hPa 0,0 mm 4,8 km/h (1 Bft) O-NO 67 10 min 4 UV-I 698 W/m 16,1 km/h (3 Bft)
04.05.2007 11:30 21,0 C 35 % 1010,0 hPa 0,0 mm 6,4 km/h (2 Bft) O 90 10 min 4 UV-I 710 W/m 16,1 km/h (3 Bft)
04.05.2007 11:40 21,1 C 35 % 1010,1 hPa 0,0 mm 4,8 km/h (1 Bft) O 90 10 min 4 UV-I 722 W/m 17,7 km/h (3 Bft)
04.05.2007 11:50 21,2 C 35 % 1010,0 hPa 0,0 mm 4,8 km/h (1 Bft) O-SO 112 10 min 4 UV-I 740 W/m 16,1 km/h (3 Bft)
04.05.2007 12:00 21,5 C 36 % 1010,0 hPa 0,0 mm 4,8 km/h (1 Bft) O 90 10 min 4 UV-I 765 W/m 9,7 km/h (2 Bft)
04.05.2007 12:10 21,8 C 34 % 1009,9 hPa 0,0 mm 4,8 km/h (1 Bft) O 90 10 min 4 UV-I 789 W/m 11,3 km/h (2 Bft)
04.05.2007 12:20 21,8 C 34 % 1009,9 hPa 0,0 mm 4,8 km/h (1 Bft) O-SO 112 10 min 5 UV-I 838 W/m 11,3 km/h (2 Bft)
04.05.2007 12:30 21,9 C 34 % 1009,8 hPa 0,0 mm 3,2 km/h (1 Bft) O 90 10 min 5 UV-I 877 W/m 9,7 km/h (2 Bft)
04.05.2007 12:40 22,1 C 33 % 1009,7 hPa 0,0 mm 4,8 km/h (1 Bft) O 90 10 min 5 UV-I 916 W/m 9,7 km/h (2 Bft)
04.05.2007 12:50 22,3 C 33 % 1009,7 hPa 0,0 mm 3,2 km/h (1 Bft) O-NO 67 10 min 5 UV-I 891 W/m 11,3 km/h (2 Bft)
04.05.2007 13:00 21,9 C 34 % 1009,7 hPa 0,0 mm 3,2 km/h (1 Bft) O 90 10 min 5 UV-I 967 W/m 6,4 km/h (2 Bft)
04.05.2007 13:10 22,0 C 35 % 1009,6 hPa 0,0 mm 3,2 km/h (1 Bft) O 90 10 min 5 UV-I 909 W/m 8,0 km/h (2 Bft)
04.05.2007 13:20 22,9 C 30 % 1009,5 hPa 0,0 mm 3,2 km/h (1 Bft) O 90 10 min 5 UV-I 916 W/m 12,9 km/h (3 Bft)
04.05.2007 13:30 22,7 C 32 % 1009,4 hPa 0,0 mm 1,6 km/h (1 Bft) O-SO 112 10 min 5 UV-I 898 W/m 9,7 km/h (2 Bft)
04.05.2007 13:40 23,1 C 32 % 1009,3 hPa 0,0 mm 3,2 km/h (1 Bft) O 90 10 min 5 UV-I 888 W/m 9,7 km/h (2 Bft)
04.05.2007 13:50 23,1 C 31 % 1009,3 hPa 0,0 mm 4,8 km/h (1 Bft) O-SO 112 10 min 5 UV-I 882 W/m 11,3 km/h (2 Bft)
04.05.2007 14:00 22,7 C 32 % 1009,2 hPa 0,0 mm 4,8 km/h (1 Bft) O 90 10 min 5 UV-I 872 W/m 11,3 km/h (2 Bft)
04.05.2007 14:10 23,3 C 31 % 1009,1 hPa 0,0 mm 3,2 km/h (1 Bft) O-NO 67 10 min 5 UV-I 847 W/m 9,7 km/h (2 Bft)
04.05.2007 14:20 23,2 C 32 % 1009,1 hPa 0,0 mm 4,8 km/h (1 Bft) O 90 10 min 5 UV-I 849 W/m 16,1 km/h (3 Bft)
04.05.2007 14:30 22,2 C 34 % 1009,1 hPa 0,0 mm 3,2 km/h (1 Bft) O 90 10 min 5 UV-I 853 W/m 8,0 km/h (2 Bft)
04.05.2007 14:40 22,6 C 33 % 1009,1 hPa 0,0 mm 4,8 km/h (1 Bft) O-NO 67 10 min 4 UV-I 830 W/m 16,1 km/h (3 Bft)
04.05.2007 14:50 22,6 C 33 % 1009,0 hPa 0,0 mm 3,2 km/h (1 Bft) O-NO 67 10 min 4 UV-I 823 W/m 16,1 km/h (3 Bft)
04.05.2007 15:00 22,4 C 33 % 1009,1 hPa 0,0 mm 4,8 km/h (1 Bft) O 90 10 min 4 UV-I 805 W/m 9,7 km/h (2 Bft)
04.05.2007 15:10 22,4 C 33 % 1009,1 hPa 0,0 mm 4,8 km/h (1 Bft) O-NO 67 10 min 4 UV-I 809 W/m 11,3 km/h (2 Bft)
04.05.2007 15:20 22,1 C 32 % 1009,0 hPa 0,0 mm 3,2 km/h (1 Bft) O 90 10 min 4 UV-I 791 W/m 8,0 km/h (2 Bft)
04.05.2007 15:30 22,8 C 31 % 1008,9 hPa 0,0 mm 3,2 km/h (1 Bft) O-NO 67 10 min 4 UV-I 795 W/m 8,0 km/h (2 Bft)
04.05.2007 15:40 22,6 C 32 % 1008,9 hPa 0,0 mm 3,2 km/h (1 Bft) O 90 10 min 4 UV-I 731 W/m 9,7 km/h (2 Bft)
04.05.2007 15:50 22,7 C 32 % 1008,5 hPa 0,0 mm 3,2 km/h (1 Bft) O-NO 67 10 min 3 UV-I 729 W/m 11,3 km/h (2 Bft)
04.05.2007 16:00 23,1 C 30 % 1008,4 hPa 0,0 mm 3,2 km/h (1 Bft) O 90 10 min 3 UV-I 701 W/m 9,7 km/h (2 Bft)
04.05.2007 16:10 22,6 C 31 % 1008,4 hPa 0,0 mm 4,8 km/h (1 Bft) O 90 10 min 3 UV-I 673 W/m 11,3 km/h (2 Bft)
04.05.2007 16:20 22,8 C 31 % 1008,4 hPa 0,0 mm 4,8 km/h (1 Bft) O 90 10 min 3 UV-I 656 W/m 11,3 km/h (2 Bft)
04.05.2007 16:30 22,7 C 32 % 1008,3 hPa 0,0 mm 3,2 km/h (1 Bft) W 270 10 min 3 UV-I 631 W/m 9,7 km/h (2 Bft)
04.05.2007 16:40 22,9 C 32 % 1008,2 hPa 0,0 mm 3,2 km/h (1 Bft) O-NO 67 10 min 3 UV-I 624 W/m 11,3 km/h (2 Bft)
04.05.2007 16:50 22,8 C 31 % 1008,2 hPa 0,0 mm 3,2 km/h (1 Bft) O 90 10 min 2 UV-I 615 W/m 16,1 km/h (3 Bft)
04.05.2007 17:00 22,4 C 31 % 1008,3 hPa 0,0 mm 3,2 km/h (1 Bft) O-NO 67 10 min 2 UV-I 603 W/m 9,7 km/h (2 Bft)
04.05.2007 17:10 22,3 C 33 % 1008,4 hPa 0,0 mm 4,8 km/h (1 Bft) O 90 10 min 2 UV-I 578 W/m 12,9 km/h (3 Bft)
04.05.2007 17:20 22,3 C 32 % 1008,3 hPa 0,0 mm 3,2 km/h (1 Bft) O-NO 67 10 min 2 UV-I 529 W/m 8,0 km/h (2 Bft)
04.05.2007 17:30 22,3 C 32 % 1008,1 hPa 0,0 mm 3,2 km/h (1 Bft) O 90 10 min 2 UV-I 510 W/m 9,7 km/h (2 Bft)
04.05.2007 17:40 22,3 C 32 % 1008,1 hPa 0,0 mm 4,8 km/h (1 Bft) O 90 10 min 2 UV-I 478 W/m 9,7 km/h (2 Bft)
04.05.2007 17:50 22,2 C 32 % 1008,1 hPa 0,0 mm 3,2 km/h (1 Bft) O 90 10 min 1 UV-I 448 W/m 14,5 km/h (3 Bft)
04.05.2007 18:00 22,1 C 32 % 1008,0 hPa 0,0 mm 3,2 km/h (1 Bft) O-NO 67 10 min 1 UV-I 408 W/m 9,7 km/h (2 Bft)
04.05.2007 18:10 22,0 C 31 % 1008,0 hPa 0,0 mm 4,8 km/h (1 Bft) O-NO 67 10 min 1 UV-I 388 W/m 14,5 km/h (3 Bft)
04.05.2007 18:20 21,9 C 31 % 1008,1 hPa 0,0 mm 4,8 km/h (1 Bft) O 90 10 min 1 UV-I 360 W/m 16,1 km/h (3 Bft)
04.05.2007 18:30 21,8 C 31 % 1008,1 hPa 0,0 mm 4,8 km/h (1 Bft) O 90 10 min 1 UV-I 338 W/m 14,5 km/h (3 Bft)
04.05.2007 18:40 21,7 C 31 % 1008,0 hPa 0,0 mm 3,2 km/h (1 Bft) O 90 10 min 1 UV-I 311 W/m 9,7 km/h (2 Bft)
04.05.2007 18:50 21,4 C 32 % 1008,1 hPa 0,0 mm 4,8 km/h (1 Bft) O 90 10 min 1 UV-I 283 W/m 11,3 km/h (2 Bft)
04.05.2007 19:00 21,2 C 32 % 1008,0 hPa 0,0 mm 3,2 km/h (1 Bft) O 90 10 min 1 UV-I 258 W/m 11,3 km/h (2 Bft)
04.05.2007 19:10 20,9 C 32 % 1008,0 hPa 0,0 mm 4,8 km/h (1 Bft) O 90 10 min 1 UV-I 236 W/m 11,3 km/h (2 Bft)
04.05.2007 19:20 20,7 C 33 % 1008,0 hPa 0,0 mm 3,2 km/h (1 Bft) O-SO 112 10 min 0 UV-I 192 W/m 9,7 km/h (2 Bft)
04.05.2007 19:30 20,5 C 32 % 1008,0 hPa 0,0 mm 4,8 km/h (1 Bft) O 90 0 min 0 UV-I 95 W/m 11,3 km/h (2 Bft)
04.05.2007 19:40 20,4 C 31 % 1008,1 hPa 0,0 mm 3,2 km/h (1 Bft) O 90 0 min 0 UV-I 79 W/m 11,3 km/h (2 Bft)
04.05.2007 19:50 20,3 C 30 % 1008,2 hPa 0,0 mm 4,8 km/h (1 Bft) O 90 0 min 0 UV-I 72 W/m 16,1 km/h (3 Bft)
04.05.2007 20:00 20,2 C 31 % 1008,3 hPa 0,0 mm 3,2 km/h (1 Bft) O-NO 67 10 min 0 UV-I 70 W/m 8,0 km/h (2 Bft)
04.05.2007 20:10 19,9 C 31 % 1008,3 hPa 0,0 mm 3,2 km/h (1 Bft) O-SO 112 10 min 0 UV-I 54 W/m 11,3 km/h (2 Bft)
04.05.2007 20:20 19,7 C 32 % 1008,4 hPa 0,0 mm 3,2 km/h (1 Bft) O 90 10 min 0 UV-I 39 W/m 8,0 km/h (2 Bft)
04.05.2007 20:30 19,4 C 32 % 1008,5 hPa 0,0 mm 1,6 km/h (1 Bft) O 90 10 min 0 UV-I 35 W/m 6,4 km/h (2 Bft)
04.05.2007 20:40 19,2 C 33 % 1008,6 hPa 0,0 mm 1,6 km/h (1 Bft) O-NO 67 10 min 0 UV-I 25 W/m 6,4 km/h (2 Bft)
04.05.2007 20:50 18,9 C 34 % 1008,7 hPa 0,0 mm 1,6 km/h (1 Bft) O-NO 67 0 min 0 UV-I 0 W/m 6,4 km/h (2 Bft)
04.05.2007 21:00 18,6 C 34 % 1008,8 hPa 0,0 mm 1,6 km/h (1 Bft) O-NO 67 0 min 0 UV-I 0 W/m 4,8 km/h (1 Bft)
04.05.2007 21:10 18,2 C 34 % 1008,8 hPa 0,0 mm 0,0 km/h (0 Bft) O-NO 67 0 min 0 UV-I 0 W/m 6,4 km/h (2 Bft)
04.05.2007 21:20 17,9 C 35 % 1008,9 hPa 0,0 mm 1,6 km/h (1 Bft) O 90 0 min 0 UV-I 0 W/m 3,2 km/h (1 Bft)
04.05.2007 21:30 17,6 C 36 % 1009,0 hPa 0,0 mm 0,0 km/h (0 Bft) NO 45 0 min 0 UV-I 0 W/m 3,2 km/h (1 Bft)
04.05.2007 21:40 17,2 C 36 % 1009,1 hPa 0,0 mm 0,0 km/h (0 Bft) O-NO 67 0 min 0 UV-I 0 W/m 3,2 km/h (1 Bft)
04.05.2007 21:50 16,8 C 37 % 1009,0 hPa 0,0 mm 0,0 km/h (0 Bft) O 90 0 min 0 UV-I 0 W/m 4,8 km/h (1 Bft)
04.05.2007 22:00 16,5 C 37 % 1009,1 hPa 0,0 mm 0,0 km/h (0 Bft) O 90 0 min 0 UV-I 0 W/m 3,2 km/h (1 Bft)
04.05.2007 22:10 16,2 C 37 % 1009,1 hPa 0,0 mm 1,6 km/h (1 Bft) O 90 0 min 0 UV-I 0 W/m 4,8 km/h (1 Bft)
04.05.2007 22:20 15,9 C 37 % 1009,1 hPa 0,0 mm 0,0 km/h (0 Bft) NO 45 0 min 0 UV-I 0 W/m 4,8 km/h (1 Bft)
04.05.2007 22:30 15,6 C 37 % 1009,1 hPa 0,0 mm 0,0 km/h (0 Bft) O-NO 67 0 min 0 UV-I 0 W/m 4,8 km/h (1 Bft)
04.05.2007 22:40 15,3 C 36 % 1009,2 hPa 0,0 mm 0,0 km/h (0 Bft) NO 45 0 min 0 UV-I 0 W/m 3,2 km/h (1 Bft)
04.05.2007 22:50 15,1 C 36 % 1009,2 hPa 0,0 mm 0,0 km/h (0 Bft) NO 45 0 min 0 UV-I 0 W/m 4,8 km/h (1 Bft)
04.05.2007 23:00 15,0 C 35 % 1009,1 hPa 0,0 mm 0,0 km/h (0 Bft) O-NO 67 0 min 0 UV-I 0 W/m 3,2 km/h (1 Bft)
04.05.2007 23:10 14,9 C 36 % 1009,2 hPa 0,0 mm 0,0 km/h (0 Bft) O-NO 67 0 min 0 UV-I 0 W/m 3,2 km/h (1 Bft)
04.05.2007 23:20 14,7 C 36 % 1009,2 hPa 0,0 mm 0,0 km/h (0 Bft) N-NO 22 0 min 0 UV-I 0 W/m 1,6 km/h (1 Bft)
04.05.2007 23:30 14,6 C 35 % 1009,3 hPa 0,0 mm 0,0 km/h (0 Bft) N-NO 22 0 min 0 UV-I 0 W/m 1,6 km/h (1 Bft)
04.05.2007 23:40 14,4 C 36 % 1009,3 hPa 0,0 mm 0,0 km/h (0 Bft) NO 45 0 min 0 UV-I 0 W/m 3,2 km/h (1 Bft)
04.05.2007 23:50 14,2 C 37 % 1009,4 hPa 0,0 mm 0,0 km/h (0 Bft) N 0 0 min 0 UV-I 0 W/m 0,0 km/h (0 Bft)
_ Min-Zeit 06:00 13:20 18:00 - 00:00 - - - - - 00:20
Minimum _ 7,2 C 30 % 1008,0 hPa - 0,0 km/h (0 Bft) - - - - - 0,0 km/h (0 Bft)
_ Max-Zeit 14:10 06:00 00:00 00:00 11:30 - - 07:30 12:20 13:00 11:40
Maximum _ 23,5 C 81 % 1011,8 hPa 0,0 mm 6,4 km/h
O (2 Bft)
- - 10 min 5 UV-I 967 W/m 17,7 km/h
N (3 Bft)
Durchschnitt _ 16,2 C 48 % 1009,8 hPa #0,0 mm 1,9 km/h (1 Bft) O - #12:50 h 3 UV-I 490 W/m 6,1 km/h (2 Bft)